Time;durP1;ratioP1;P1;durP2;ratioP2;P2;SDS_P1;SDS_P2;PMS_P1;PMS_P2;Temp;Humidity;BMP_temperature;BMP_pressure;BME280_temperature;BME280_humidity;BME280_pressure;Samples;Min_cycle;Max_cycle;Signal;HPM_P1;HPM_P2
2023/01/02 00:01:50;;;;;;;2.77;2.30;;;1.60;99.90;2.20;97587.00;;;;5031522;28;20452;-86
2023/01/02 00:04:40;;;;;;;4.37;2.97;;;1.60;99.90;2.20;97577.00;;;;5037937;28;20420;-86
2023/01/02 00:07:29;;;;;;;4.30;3.60;;;1.60;99.90;2.30;97574.00;;;;5037680;28;20424;-86
2023/01/02 00:10:18;;;;;;;4.80;4.20;;;1.60;99.90;2.50;97588.00;;;;5039911;28;20460;-85
2023/01/02 00:13:06;;;;;;;5.40;3.47;;;1.70;99.90;2.10;97572.00;;;;5037387;28;20522;-86
2023/01/02 00:15:55;;;;;;;3.77;2.83;;;1.60;99.90;2.50;97583.00;;;;5037672;28;20421;-87
2023/01/02 00:18:44;;;;;;;4.80;3.53;;;1.90;99.90;2.30;97563.00;;;;5031450;28;21011;-86
2023/01/02 00:21:34;;;;;;;6.93;3.70;;;1.70;99.90;2.10;97567.00;;;;5036876;28;20474;-87
2023/01/02 00:24:22;;;;;;;3.03;2.77;;;1.80;99.90;2.00;97569.00;;;;5037183;28;20440;-86
2023/01/02 00:27:11;;;;;;;4.20;3.73;;;1.50;99.90;2.30;97559.00;;;;5038815;28;20447;-86
2023/01/02 00:30:00;;;;;;;4.87;3.67;;;1.50;99.90;2.40;97570.00;;;;5032222;28;20486;-87
2023/01/02 00:32:49;;;;;;;6.83;3.83;;;1.60;99.90;2.90;97568.00;;;;5038709;28;20476;-87
2023/01/02 00:35:38;;;;;;;5.30;3.70;;;1.70;99.90;2.80;97554.00;;;;5031328;28;20428;-86
2023/01/02 00:38:28;;;;;;;5.33;3.63;;;1.80;99.90;2.90;97561.00;;;;5037940;28;20433;-87
2023/01/02 00:41:17;;;;;;;4.00;3.57;;;1.80;99.90;2.70;97544.00;;;;5025779;28;20483;-86
2023/01/02 00:44:06;;;;;;;6.97;4.00;;;2.00;99.90;2.40;97543.00;;;;5037815;28;20443;-85
2023/01/02 00:46:55;;;;;;;5.20;3.83;;;1.90;99.90;2.70;97550.00;;;;5037930;28;20945;-87
2023/01/02 00:49:43;;;;;;;5.07;4.20;;;1.90;99.90;2.70;97539.00;;;;5029514;28;20436;-86
2023/01/02 00:52:32;;;;;;;5.57;3.47;;;3.10;99.90;2.50;97539.00;;;;5037368;28;20464;-86
2023/01/02 00:55:22;;;;;;;4.13;3.37;;;2.00;99.90;2.40;97537.00;;;;5038125;28;20933;-85
2023/01/02 00:58:11;;;;;;;4.23;3.83;;;1.80;99.90;2.50;97548.00;;;;5038408;28;21248;-86
2023/01/02 01:01:00;;;;;;;4.80;3.63;;;1.80;99.90;2.50;97538.00;;;;5038471;28;20858;-86
2023/01/02 01:03:49;;;;;;;3.57;3.20;;;1.70;99.90;2.80;97536.00;;;;5032972;28;20429;-85
2023/01/02 01:06:37;;;;;;;8.23;4.07;;;1.70;99.90;3.00;97536.00;;;;5036665;28;20474;-86
2023/01/02 01:09:26;;;;;;;4.57;2.67;;;1.80;99.90;2.70;97531.00;;;;5037189;28;20441;-85
2023/01/02 01:12:16;;;;;;;4.70;4.00;;;1.90;99.90;2.20;97528.00;;;;5036784;28;20448;-87
2023/01/02 01:15:07;;;;;;;4.57;3.70;;;2.90;99.90;2.70;97524.00;;;;5034695;28;20417;-86
2023/01/02 01:17:56;;;;;;;3.83;3.30;;;-0.20;99.90;2.50;97521.00;;;;5034753;28;20463;-87
2023/01/02 01:20:45;;;;;;;5.47;4.30;;;1.70;99.90;2.20;97497.00;;;;5033664;28;20523;-87
2023/01/02 01:23:33;;;;;;;6.13;3.97;;;1.60;99.90;2.20;97517.00;;;;5025180;28;20425;-85
2023/01/02 01:26:23;;;;;;;5.93;3.80;;;1.60;99.90;2.30;97524.00;;;;5035777;28;20925;-86
2023/01/02 01:29:14;;;;;;;5.33;3.93;;;1.50;99.90;2.00;97532.00;;;;5035482;28;20428;-85
2023/01/02 01:32:02;;;;;;;6.53;3.53;;;1.70;99.90;1.80;97510.00;;;;5032729;28;20463;-86
2023/01/02 01:34:51;;;;;;;5.90;3.23;;;2.20;99.90;2.10;97512.00;;;;5036938;28;20785;-86
2023/01/02 01:37:40;;;;;;;4.40;3.53;;;1.30;99.90;2.20;97512.00;;;;5032948;28;21010;-84
2023/01/02 01:40:28;;;;;;;5.63;3.97;;;1.60;99.90;2.60;97512.00;;;;5035479;28;20949;-84
2023/01/02 01:43:17;;;;;;;4.50;3.10;;;1.50;99.90;2.40;97499.00;;;;5034919;28;20432;-86
2023/01/02 01:46:18;;;;;;;4.30;3.30;;;1.80;99.90;2.10;97501.00;;;;5034487;28;20447;-85
2023/01/02 01:49:13;;;;;;;5.33;3.70;;;1.90;99.90;2.20;97494.00;;;;5035494;28;21024;-86
2023/01/02 01:52:07;;;;;;;5.90;3.93;;;1.40;99.90;2.40;97489.00;;;;5035456;28;20456;-84
2023/01/02 01:55:01;;;;;;;7.40;3.90;;;1.40;99.90;2.50;97488.00;;;;5036070;28;20892;-85
2023/01/02 01:57:53;;;;;;;5.47;4.27;;;1.70;99.90;2.60;97495.00;;;;5035774;28;20432;-86
2023/01/02 02:00:43;;;;;;;5.40;4.40;;;1.60;99.90;2.30;97498.00;;;;5035549;28;20904;-85
2023/01/02 02:03:36;;;;;;;5.37;4.00;;;1.60;99.90;2.50;97487.00;;;;5033046;28;20436;-84
2023/01/02 02:06:24;;;;;;;3.80;3.23;;;1.50;99.90;2.40;97486.00;;;;5031645;28;20509;-86
2023/01/02 02:09:19;;;;;;;4.87;3.83;;;1.50;99.90;1.90;97476.00;;;;5025983;28;20440;-83
2023/01/02 02:12:08;;;;;;;5.53;4.03;;;1.40;99.90;1.60;97473.00;;;;5030495;28;20448;-84
2023/01/02 02:14:57;;;;;;;3.60;2.43;;;1.20;99.90;1.60;97468.00;;;;5030054;28;20518;-89
2023/01/02 02:17:59;;;;;;;6.07;3.70;;;1.50;99.90;2.20;97474.00;;;;5029993;28;20432;-86
2023/01/02 02:20:57;;;;;;;4.23;3.13;;;1.50;99.90;2.60;97477.00;;;;5024522;28;20458;-86
2023/01/02 02:24:21;;;;;;;4.33;3.73;;;2.30;99.90;2.50;97473.00;;;;5030204;28;20424;-85
2023/01/02 02:27:33;;;;;;;3.80;3.10;;;1.40;99.90;2.20;97483.00;;;;5030251;28;20494;-84
2023/01/02 02:30:25;;;;;;;3.07;2.77;;;1.50;99.90;2.30;97476.00;;;;5019916;28;20467;-85
2023/01/02 02:33:38;;;;;;;4.67;3.57;;;2.10;99.90;2.60;97475.00;;;;5018719;28;20553;-85
2023/01/02 02:36:34;;;;;;;5.53;3.97;;;1.50;99.90;2.60;97466.00;;;;5029493;28;20463;-85
2023/01/02 02:39:36;;;;;;;6.40;3.43;;;1.60;99.90;2.70;97459.00;;;;5029089;28;20831;-86
2023/01/02 02:42:39;;;;;;;7.07;4.20;;;2.60;99.90;2.90;97453.00;;;;5029911;28;20439;-86
2023/01/02 02:45:39;;;;;;;4.17;3.20;;;1.70;99.90;2.80;97453.00;;;;5025262;28;20629;-84
2023/01/02 02:48:38;;;;;;;4.60;1.93;;;2.00;99.90;2.20;97432.00;;;;5032682;28;20424;-87
2023/01/02 02:51:35;;;;;;;2.97;1.80;;;1.60;99.90;1.30;97434.00;;;;5034364;28;20449;-91
2023/01/02 02:54:33;;;;;;;3.93;3.20;;;1.40;99.90;1.10;97429.00;;;;5034554;28;20793;-84
2023/01/02 02:57:24;;;;;;;3.10;2.80;;;2.90;99.90;1.40;97440.00;;;;5034524;28;20435;-85
2023/01/02 03:00:17;;;;;;;5.80;3.60;;;1.40;99.90;1.50;97425.00;;;;5033597;28;20440;-85
2023/01/02 03:03:17;;;;;;;6.83;2.97;;;0.90;99.90;1.30;97428.00;;;;5034746;28;20897;-85
2023/01/02 03:06:22;;;;;;;3.43;3.13;;;1.20;99.90;1.30;97424.00;;;;5029197;28;20420;-84
2023/01/02 03:09:18;;;;;;;3.07;2.50;;;0.70;99.90;1.60;97415.00;;;;5028443;28;20520;-84
2023/01/02 03:12:20;;;;;;;6.10;3.23;;;0.70;99.90;1.60;97427.00;;;;5034217;28;20463;-85
2023/01/02 03:15:20;;;;;;;3.70;2.43;;;1.40;99.90;1.80;97418.00;;;;5048530;28;20475;-84
2023/01/02 03:18:21;;;;;;;5.27;3.87;;;0.80;99.90;1.80;97421.00;;;;5057310;28;20420;-83
2023/01/02 03:21:17;;;;;;;5.17;3.53;;;1.10;99.90;1.90;97427.00;;;;5049647;28;20495;-88
2023/01/02 03:24:09;;;;;;;3.13;2.83;;;1.10;99.90;2.00;97419.00;;;;5045988;28;20420;-85
2023/01/02 03:27:02;;;;;;;5.50;3.10;;;1.10;99.90;2.10;97419.00;;;;5045750;28;20933;-88
2023/01/02 03:29:59;;;;;;;5.60;3.43;;;1.20;99.90;1.80;97425.00;;;;5039764;28;20432;-84
2023/01/02 03:32:53;;;;;;;4.50;2.60;;;1.50;99.90;1.60;97414.00;;;;5041747;28;20436;-88
2023/01/02 03:35:46;;;;;;;8.10;3.30;;;1.00;99.90;1.40;97408.00;;;;5045442;28;20486;-87
2023/01/02 03:38:42;;;;;;;5.10;3.07;;;1.60;99.90;1.50;97406.00;;;;5040394;28;21043;-86
2023/01/02 03:41:36;;;;;;;4.47;3.13;;;1.10;99.90;2.00;97422.00;;;;5044295;28;20460;-88
2023/01/02 03:44:37;;;;;;;5.37;3.93;;;2.10;99.90;2.00;97417.00;;;;5046280;28;20439;-88
2023/01/02 03:47:35;;;;;;;3.87;3.53;;;1.00;99.90;2.00;97415.00;;;;5045043;28;20498;-85
2023/01/02 03:50:30;;;;;;;4.13;3.23;;;1.10;99.90;2.00;97421.00;;;;5044287;28;20486;-87
2023/01/02 03:53:21;;;;;;;5.33;3.50;;;1.90;99.90;2.40;97417.00;;;;5044885;28;20420;-87
2023/01/02 03:56:23;;;;;;;3.97;3.50;;;1.20;99.90;2.50;97419.00;;;;5045397;28;20416;-87
2023/01/02 03:59:23;;;;;;;4.60;4.20;;;1.40;99.90;1.70;97402.00;;;;5029501;28;20424;-84
2023/01/02 04:02:21;;;;;;;6.43;4.23;;;1.50;99.90;1.30;97407.00;;;;5044920;28;20861;-88
2023/01/02 04:05:19;;;;;;;3.80;2.77;;;1.20;99.90;1.10;97404.00;;;;5037388;28;20428;-87
2023/01/02 04:08:15;;;;;;;3.33;2.87;;;1.20;99.90;1.30;97392.00;;;;5044114;28;20438;-86
2023/01/02 04:11:08;;;;;;;5.30;2.77;;;1.40;99.90;1.10;97394.00;;;;5041026;28;20445;-86
2023/01/02 04:14:02;;;;;;;5.43;3.70;;;1.60;99.90;1.40;97395.00;;;;5034974;28;20424;-86
2023/01/02 04:16:52;;;;;;;5.10;4.00;;;0.60;99.90;1.10;97390.00;;;;5039822;28;20452;-86
2023/01/02 04:19:47;;;;;;;5.77;3.77;;;2.00;99.90;1.20;97410.00;;;;5039799;28;20952;-87
2023/01/02 04:22:42;;;;;;;4.30;3.67;;;1.80;99.90;1.20;97404.00;;;;5042854;28;20960;-85
2023/01/02 04:25:37;;;;;;;5.83;4.17;;;1.20;99.90;1.50;97394.00;;;;5043787;28;20988;-86
2023/01/02 04:28:30;;;;;;;9.33;4.57;;;0.70;99.90;1.70;97406.00;;;;5042317;28;20800;-87
2023/01/02 04:31:25;;;;;;;6.53;3.90;;;0.70;99.90;1.60;97399.00;;;;5042511;28;20483;-87
2023/01/02 04:34:17;;;;;;;3.90;3.60;;;0.70;99.90;1.30;97404.00;;;;5044633;28;20468;-88
2023/01/02 04:37:06;;;;;;;5.60;4.40;;;0.60;99.90;1.40;97403.00;;;;5042457;28;20472;-88
2023/01/02 04:39:57;;;;;;;5.47;3.47;;;0.60;99.90;1.70;97391.00;;;;5042882;28;20479;-88
2023/01/02 04:42:45;;;;;;;4.13;3.40;;;0.70;99.90;1.30;97396.00;;;;5037761;28;20436;-83
2023/01/02 04:45:36;;;;;;;3.93;2.47;;;0.60;99.90;1.00;97396.00;;;;5042897;28;20424;-88
2023/01/02 04:48:24;;;;;;;5.53;3.33;;;1.40;99.90;1.20;97400.00;;;;5041531;28;20432;-88
2023/01/02 04:51:13;;;;;;;3.67;3.37;;;0.60;99.90;1.60;97406.00;;;;5040004;28;20510;-85
2023/01/02 04:54:02;;;;;;;3.43;3.00;;;1.80;99.90;1.70;97388.00;;;;5040907;28;20431;-88
2023/01/02 04:56:50;;;;;;;2.37;2.17;;;1.20;99.90;1.30;97390.00;;;;5042032;28;20506;-88
2023/01/02 04:59:39;;;;;;;4.90;3.93;;;0.70;99.90;1.00;97395.00;;;;5034610;28;20437;-84
2023/01/02 05:02:29;;;;;;;7.88;6.10;;;1.90;99.90;1.50;97386.00;;;;5039563;28;20392;-86
2023/01/02 05:05:18;;;;;;;4.83;4.10;;;0.90;99.90;1.80;97395.00;;;;5042962;28;20734;-86
2023/01/02 05:08:07;;;;;;;5.03;3.23;;;0.70;99.90;1.40;97383.00;;;;5047649;28;20440;-85
2023/01/02 05:11:06;;;;;;;4.33;3.80;;;0.70;99.90;1.40;97384.00;;;;5051643;28;20483;-83
2023/01/02 05:13:55;;;;;;;4.00;3.30;;;0.70;99.90;1.00;97380.00;;;;5040188;28;20416;-88
2023/01/02 05:16:44;;;;;;;3.63;3.33;;;2.30;99.90;0.70;97380.00;;;;5028587;28;20420;-85
2023/01/02 05:19:34;;;;;;;7.45;5.60;;;2.60;99.90;0.80;97378.00;;;;5042145;28;20808;-86
2023/01/02 05:25:33;;;;;;;2.30;2.10;;;2.50;99.90;1.00;97378.00;;;;5042436;28;20440;-88
2023/01/02 05:28:22;;;;;;;4.43;3.33;;;1.50;99.90;1.20;97367.00;;;;5042729;28;20439;-88
2023/01/02 05:31:11;;;;;;;5.10;3.87;;;0.40;99.90;1.40;97390.00;;;;5040994;28;20449;-88
2023/01/02 05:34:00;;;;;;;3.53;3.23;;;0.50;99.90;1.30;97390.00;;;;5043299;28;20460;-89
2023/01/02 05:36:50;;;;;;;7.83;4.57;;;0.50;99.90;1.60;97387.00;;;;5040783;28;20806;-87
2023/01/02 05:39:39;;;;;;;3.67;2.83;;;1.10;99.90;1.80;97392.00;;;;5030605;28;20424;-85
2023/01/02 05:42:27;;;;;;;4.57;3.17;;;1.10;99.90;1.20;97389.00;;;;5033623;28;20444;-87
2023/01/02 05:45:16;;;;;;;3.23;2.87;;;0.80;99.90;1.10;97381.00;;;;5030640;28;20864;-87
2023/01/02 05:48:06;;;;;;;5.60;4.27;;;0.50;99.90;1.20;97384.00;;;;5029011;28;20431;-87
2023/01/02 05:50:54;;;;;;;3.37;2.73;;;0.60;99.90;1.40;97381.00;;;;5029834;28;20526;-84
2023/01/02 05:53:45;;;;;;;3.10;2.83;;;0.60;99.90;1.30;97380.00;;;;5030429;28;20435;-87
2023/01/02 05:56:34;;;;;;;3.80;3.10;;;0.60;99.90;1.40;97380.00;;;;5030444;28;20542;-88
2023/01/02 05:59:22;;;;;;;2.90;2.70;;;1.10;99.90;1.60;97384.00;;;;5029349;28;20429;-87
2023/01/02 06:02:11;;;;;;;4.73;2.43;;;0.70;99.90;1.50;97384.00;;;;5028860;28;20452;-87
2023/01/02 06:05:00;;;;;;;4.33;3.30;;;0.80;99.90;2.00;97398.00;;;;5029696;28;20800;-87
2023/01/02 06:07:49;;;;;;;3.87;3.47;;;1.30;99.90;1.40;97384.00;;;;5022078;28;20930;-88
2023/01/02 06:10:39;;;;;;;2.93;2.40;;;0.90;99.90;1.20;97377.00;;;;5017875;28;20452;-85
2023/01/02 06:13:29;;;;;;;4.23;2.70;;;1.80;99.90;1.10;97388.00;;;;5015813;28;20463;-86
2023/01/02 06:16:18;;;;;;;3.73;2.27;;;0.60;99.90;1.20;97374.00;;;;5029782;28;20475;-86
2023/01/02 06:19:07;;;;;;;3.73;3.17;;;0.50;99.90;1.50;97378.00;;;;5028701;28;20511;-87
2023/01/02 06:21:56;;;;;;;3.63;3.33;;;0.60;99.90;1.30;97373.00;;;;5027457;28;20437;-85
2023/01/02 06:24:44;;;;;;;6.23;4.37;;;0.60;99.90;1.40;97377.00;;;;5027984;28;20432;-86
2023/01/02 06:27:34;;;;;;;5.30;3.70;;;1.90;99.90;1.40;97371.00;;;;5029827;28;20475;-85
2023/01/02 06:30:23;;;;;;;3.63;3.33;;;0.70;99.90;0.90;97366.00;;;;5029881;28;20456;-86
2023/01/02 06:33:12;;;;;;;3.80;2.87;;;0.60;99.90;0.50;97373.00;;;;5027571;28;20431;-85
2023/01/02 06:36:02;;;;;;;6.87;4.80;;;0.40;99.90;0.70;97375.00;;;;5031326;28;20467;-85
2023/01/02 06:38:51;;;;;;;7.47;6.03;;;0.60;99.90;1.30;97368.00;;;;5029288;28;20432;-86
2023/01/02 06:41:40;;;;;;;5.20;4.77;;;0.40;99.90;1.20;97387.00;;;;5028897;28;20500;-85
2023/01/02 06:44:30;;;;;;;2.83;2.53;;;0.90;99.90;1.10;97374.00;;;;5020089;28;21007;-91
2023/01/02 06:47:19;;;;;;;3.93;3.50;;;0.50;99.90;1.20;97371.00;;;;5028981;28;20494;-85
2023/01/02 06:50:09;;;;;;;3.87;3.13;;;1.30;99.90;1.20;97371.00;;;;5028905;28;20427;-86
2023/01/02 06:52:57;;;;;;;4.70;3.10;;;0.60;99.90;1.60;97383.00;;;;5029668;28;20432;-86
2023/01/02 06:55:51;;;;;;;4.53;3.53;;;0.70;99.90;1.70;97380.00;;;;5018028;28;20471;-85
2023/01/02 06:58:40;;;;;;;4.43;2.00;;;0.80;99.90;1.20;97379.00;;;;5027312;28;21001;-87
2023/01/02 07:01:30;;;;;;;6.50;4.90;;;2.40;99.90;1.70;97389.00;;;;5030506;28;20439;-85
2023/01/02 07:04:19;;;;;;;3.80;3.50;;;0.90;99.90;1.40;97388.00;;;;5028519;28;20424;-86
2023/01/02 07:07:08;;;;;;;5.10;4.10;;;1.10;99.90;1.30;97391.00;;;;5026720;28;20432;-86
2023/01/02 07:09:57;;;;;;;5.60;3.33;;;0.90;99.90;1.40;97390.00;;;;5028984;28;20468;-85
2023/01/02 07:12:46;;;;;;;5.93;5.00;;;1.20;99.90;1.50;97379.00;;;;5028173;28;20436;-88
2023/01/02 07:15:35;;;;;;;5.87;3.83;;;0.80;99.90;1.80;97399.00;;;;5023191;28;20471;-86
2023/01/02 07:18:25;;;;;;;6.47;4.47;;;0.90;99.90;1.20;97394.00;;;;5029455;28;20437;-86
2023/01/02 07:21:16;;;;;;;5.40;2.90;;;1.20;99.90;1.10;97391.00;;;;5028756;28;20859;-87
2023/01/02 07:24:06;;;;;;;3.03;2.73;;;0.70;99.90;1.10;97381.00;;;;5028534;28;20440;-84
2023/01/02 07:26:55;;;;;;;9.57;5.20;;;0.60;99.90;1.40;97385.00;;;;5023946;28;20424;-85
2023/01/02 07:29:44;;;;;;;5.00;2.83;;;1.20;99.90;1.00;97383.00;;;;5027852;28;20795;-89
2023/01/02 07:32:32;;;;;;;3.10;2.90;;;0.60;99.90;0.80;97371.00;;;;5028089;28;20470;-89
2023/01/02 07:35:23;;;;;;;7.63;4.00;;;1.70;99.90;0.60;97385.00;;;;5034848;28;20457;-87
2023/01/02 07:38:12;;;;;;;4.73;3.27;;;1.50;99.90;1.30;97382.00;;;;5031905;28;20437;-88
2023/01/02 07:41:01;;;;;;;3.13;2.87;;;2.20;99.90;1.60;97388.00;;;;5023207;28;20464;-90
2023/01/02 07:43:51;;;;;;;3.90;3.10;;;1.20;99.90;1.40;97386.00;;;;5024351;28;20428;-87
2023/01/02 07:46:39;;;;;;;3.90;2.67;;;0.90;99.90;1.50;97392.00;;;;5031249;28;20419;-85
2023/01/02 07:49:28;;;;;;;4.97;4.50;;;0.90;99.90;1.90;97397.00;;;;5022844;28;20501;-84
2023/01/02 07:52:18;;;;;;;4.40;3.43;;;1.00;99.90;1.70;97400.00;;;;5023858;28;20520;-86
2023/01/02 07:55:08;;;;;;;4.37;3.63;;;1.50;99.90;1.70;97398.00;;;;5023850;28;20429;-87
2023/01/02 07:57:57;;;;;;;4.67;3.60;;;1.10;99.90;1.70;97396.00;;;;5026434;28;20463;-86
2023/01/02 08:00:45;;;;;;;5.90;3.27;;;1.20;99.90;1.80;97396.00;;;;5030795;28;20462;-85
2023/01/02 08:03:35;;;;;;;7.13;3.63;;;1.20;99.90;1.90;97397.00;;;;5032154;28;20432;-87
2023/01/02 08:06:24;;;;;;;3.80;3.07;;;2.90;99.90;2.40;97406.00;;;;5039873;28;20432;-87
2023/01/02 08:09:14;;;;;;;7.30;5.17;;;1.40;99.90;2.30;97399.00;;;;5056437;28;20420;-85
2023/01/02 08:12:02;;;;;;;7.30;6.30;;;1.40;99.90;2.20;97398.00;;;;5045915;28;20465;-84
2023/01/02 08:14:52;;;;;;;4.97;4.47;;;1.70;99.90;1.90;97405.00;;;;5055692;28;20416;-86
2023/01/02 08:17:41;;;;;;;6.50;5.50;;;1.40;99.90;2.20;97388.00;;;;5055663;28;20521;-84
2023/01/02 08:20:29;;;;;;;3.70;3.40;;;1.40;99.90;2.20;97399.00;;;;5046443;28;20440;-84
2023/01/02 08:23:18;;;;;;;4.73;4.13;;;1.50;99.90;2.40;97407.00;;;;5057566;28;20466;-84
2023/01/02 08:26:11;;;;;;;12.83;4.50;;;1.50;99.90;2.40;97398.00;;;;5057018;28;20448;-85
2023/01/02 08:29:00;;;;;;;6.93;4.63;;;1.50;99.90;2.40;97406.00;;;;5056227;28;20459;-84
2023/01/02 08:31:49;;;;;;;8.60;6.67;;;2.20;99.90;2.40;97397.00;;;;5057025;28;20444;-84
2023/01/02 08:34:38;;;;;;;7.47;4.57;;;2.50;99.90;2.60;97405.00;;;;5046362;28;20421;-84
2023/01/02 08:37:27;;;;;;;9.67;6.67;;;1.80;99.90;2.80;97398.00;;;;5056797;28;20464;-84
2023/01/02 08:40:15;;;;;;;4.27;3.87;;;1.90;99.90;2.30;97404.00;;;;5056365;28;20459;-86
2023/01/02 08:43:07;;;;;;;9.13;5.17;;;1.80;99.90;2.30;97406.00;;;;5042498;28;20448;-87
2023/01/02 08:45:56;;;;;;;4.03;3.63;;;3.00;99.90;2.20;97401.00;;;;5044605;28;20517;-89
2023/01/02 08:48:45;;;;;;;4.77;4.03;;;2.80;99.90;2.50;97406.00;;;;5037345;28;20421;-86
2023/01/02 08:51:33;;;;;;;4.90;4.10;;;1.60;99.90;2.50;97421.00;;;;5034812;28;20444;-85
2023/01/02 08:54:22;;;;;;;6.23;4.47;;;1.80;99.90;2.70;97401.00;;;;5043657;28;20433;-88
2023/01/02 08:57:11;;;;;;;5.77;3.67;;;1.80;99.90;2.70;97410.00;;;;5043227;28;20471;-87
2023/01/02 09:00:01;;;;;;;4.03;3.63;;;2.30;99.90;2.50;97405.00;;;;5042623;28;20424;-85
2023/01/02 09:02:50;;;;;;;6.60;4.87;;;1.90;99.90;2.90;97405.00;;;;5034369;28;20461;-84
2023/01/02 09:05:39;;;;;;;5.53;4.57;;;2.00;99.90;3.40;97417.00;;;;5031891;28;20440;-85
2023/01/02 09:08:27;;;;;;;4.47;3.87;;;2.30;99.90;3.00;97414.00;;;;5034941;28;20941;-88
2023/01/02 09:11:22;;;;;;;5.50;4.53;;;2.30;99.90;3.50;97405.00;;;;5029535;28;20996;-85
2023/01/02 09:14:11;;;;;;;11.90;7.17;;;3.50;99.90;3.40;97420.00;;;;5032155;28;20441;-87
2023/01/02 09:17:01;;;;;;;11.80;6.37;;;3.20;99.90;3.50;97412.00;;;;5026843;28;20460;-85
2023/01/02 09:19:50;;;;;;;8.17;6.03;;;2.60;99.90;3.50;97416.00;;;;5033174;28;20443;-85
2023/01/02 09:22:39;;;;;;;7.47;4.73;;;3.30;99.90;3.60;97409.00;;;;5031734;28;20432;-86
2023/01/02 09:25:28;;;;;;;5.00;4.50;;;3.30;99.90;3.60;97410.00;;;;5028681;28;20424;-88
2023/01/02 09:28:17;;;;;;;6.53;4.23;;;2.70;99.90;3.90;97417.00;;;;5033107;28;21067;-86
2023/01/02 09:31:07;;;;;;;7.03;4.97;;;2.80;99.90;4.00;97407.00;;;;5036780;28;20522;-87
2023/01/02 09:34:01;;;;;;;6.17;4.30;;;2.90;99.90;3.90;97412.00;;;;5035945;28;20428;-87
2023/01/02 09:36:50;;;;;;;7.43;5.20;;;3.00;99.90;3.80;97410.00;;;;5021356;28;20460;-87
2023/01/02 09:39:38;;;;;;;11.63;5.67;;;3.00;99.90;4.40;97413.00;;;;5034353;28;20447;-87
2023/01/02 09:42:27;;;;;;;9.10;6.50;;;3.10;99.90;4.30;97396.00;;;;5034535;28;20436;-87
2023/01/02 09:45:16;;;;;;;14.73;9.47;;;3.90;99.90;4.40;97402.00;;;;5031291;28;20429;-88
2023/01/02 09:48:06;;;;;;;16.93;9.20;;;3.20;99.90;4.40;97391.00;;;;5033500;28;20494;-85
2023/01/02 09:50:56;;;;;;;8.53;6.63;;;3.30;99.90;4.00;97391.00;;;;5034667;28;20455;-85
2023/01/02 09:53:47;;;;;;;10.17;6.33;;;3.30;99.90;4.30;97396.00;;;;5025661;28;20437;-86
2023/01/02 09:56:40;;;;;;;5.10;4.63;;;3.30;99.90;4.00;97381.00;;;;5033098;28;20413;-86
2023/01/02 09:59:33;;;;;;;6.73;4.97;;;3.30;99.90;4.40;97381.00;;;;5032714;28;20705;-85
2023/01/02 10:02:53;;;;;;;7.50;4.73;;;3.40;99.90;4.70;97383.00;;;;5028987;28;20428;-87
2023/01/02 10:06:04;;;;;;;9.07;4.43;;;3.40;99.90;5.50;97382.00;;;;5038481;28;20439;-86
2023/01/02 10:09:06;;;;;;;8.10;5.03;;;3.80;99.90;6.10;97376.00;;;;5030487;28;20447;-86
2023/01/02 10:12:04;;;;;;;6.03;4.73;;;4.20;99.90;6.20;97372.00;;;;5033420;28;20506;-88
2023/01/02 10:14:56;;;;;;;9.00;6.27;;;4.40;99.90;6.60;97373.00;;;;5032984;28;20212;-88
2023/01/02 10:17:51;;;;;;;7.50;5.10;;;4.70;99.90;7.00;97359.00;;;;5020919;28;20415;-88
2023/01/02 10:20:46;;;;;;;4.87;4.40;;;5.00;99.90;6.90;97361.00;;;;5032829;28;20225;-87
2023/01/02 10:23:42;;;;;;;10.03;6.30;;;5.30;99.90;6.40;97350.00;;;;5023288;28;20212;-87
2023/01/02 10:26:36;;;;;;;8.53;4.73;;;5.40;99.90;6.80;97358.00;;;;5026753;28;20613;-86
2023/01/02 10:29:30;;;;;;;6.57;4.60;;;5.60;99.90;7.70;97362.00;;;;5031906;28;20263;-86
2023/01/02 10:32:21;;;;;;;11.47;6.00;;;6.20;99.90;8.10;97370.00;;;;5030673;28;20668;-86
2023/01/02 10:35:23;;;;;;;7.00;5.50;;;7.10;99.90;8.80;97364.00;;;;5032692;28;20213;-86
2023/01/02 10:38:17;;;;;;;9.20;5.47;;;8.00;99.90;10.10;97352.00;;;;5021623;28;20235;-87
2023/01/02 10:41:08;;;;;;;7.53;4.77;;;9.00;99.90;10.30;97356.00;;;;5032846;28;20224;-87
2023/01/02 10:44:00;;;;;;;5.40;4.57;;;10.00;99.90;11.30;97357.00;;;;5033407;28;20201;-86
2023/01/02 10:46:49;;;;;;;6.13;4.30;;;10.90;99.90;11.00;97346.00;;;;5028375;28;20284;-87
2023/01/02 10:49:40;;;;;;;6.90;4.60;;;11.60;99.90;11.80;97339.00;;;;5025773;28;20209;-87
2023/01/02 10:52:33;;;;;;;7.13;4.27;;;12.00;99.90;12.60;97333.00;;;;5031064;28;20666;-88
2023/01/02 10:55:33;;;;;;;8.10;4.43;;;12.60;99.90;12.00;97341.00;;;;5024985;28;20206;-87
2023/01/02 10:58:26;;;;;;;5.40;3.83;;;12.90;99.90;12.50;97333.00;;;;5029265;28;20216;-87
2023/01/02 11:01:18;;;;;;;6.03;4.50;;;13.30;99.90;13.40;97341.00;;;;5032131;28;20216;-86
2023/01/02 11:04:12;;;;;;;5.17;3.70;;;13.80;99.90;13.90;97329.00;;;;5034867;28;20209;-86
2023/01/02 11:07:03;;;;;;;5.40;4.37;;;14.10;99.90;12.80;97323.00;;;;5029614;28;20198;-87
2023/01/02 11:09:56;;;;;;;8.07;4.23;;;14.30;99.90;13.80;97331.00;;;;5032055;28;20252;-87
2023/01/02 11:12:47;;;;;;;5.10;3.97;;;14.40;99.90;14.60;97317.00;;;;5044544;28;20197;-88
2023/01/02 11:15:49;;;;;;;7.10;3.40;;;14.80;99.70;13.10;97305.00;;;;5033131;28;20259;-85
2023/01/02 11:18:39;;;;;;;8.00;4.20;;;14.80;96.60;12.50;97292.00;;;;5035261;28;20220;-87
2023/01/02 11:21:32;;;;;;;6.00;3.87;;;14.40;96.40;12.60;97300.00;;;;5037699;28;20221;-88
2023/01/02 11:24:25;;;;;;;4.63;3.33;;;14.20;97.90;13.00;97299.00;;;;5042882;28;20193;-88
2023/01/02 11:27:14;;;;;;;4.00;3.30;;;14.00;97.50;13.20;97298.00;;;;5043467;28;20197;-88
2023/01/02 11:30:07;;;;;;;5.90;3.50;;;14.10;96.90;13.40;97300.00;;;;5030260;28;20197;-88
2023/01/02 11:33:08;;;;;;;6.03;3.47;;;14.00;96.50;14.40;97285.00;;;;5030962;28;20233;-87
2023/01/02 11:36:06;;;;;;;5.63;3.20;;;14.30;97.30;14.20;97274.00;;;;5041702;28;20202;-88
2023/01/02 11:38:56;;;;;;;6.27;3.17;;;14.50;95.90;15.30;97286.00;;;;5035734;28;20698;-89
2023/01/02 11:45:08;;;;;;;5.07;3.77;;;15.30;95.30;15.10;97278.00;;;;5034417;28;20204;-88
2023/01/02 11:47:59;;;;;;;4.80;3.50;;;15.40;94.00;15.40;97271.00;;;;5037722;28;20285;-88
2023/01/02 11:50:50;;;;;;;5.30;3.37;;;15.50;93.10;14.90;97265.00;;;;5034766;28;20228;-88
2023/01/02 11:53:40;;;;;;;;;;;15.50;92.50;14.10;97249.00;;;;5041927;28;20037;-88
2023/01/02 11:56:33;;;;;;;;;;;15.00;92.90;15.30;97255.00;;;;5041262;28;19924;-87
2023/01/02 11:59:26;;;;;;;;;;;15.00;93.20;14.80;97235.00;;;;5038506;28;19921;-88
2023/01/02 12:02:18;;;;;;;;;;;15.00;92.40;15.90;97264.00;;;;5041173;28;20405;-87
2023/01/02 12:05:10;;;;;;;;;;;15.10;93.40;16.20;97261.00;;;;5039811;28;20059;-88
2023/01/02 12:08:04;;;;;;;;;;;15.40;92.70;17.10;97265.00;;;;5040686;28;19921;-87
2023/01/02 12:11:01;;;;;;;;;;;15.80;92.60;16.90;97249.00;;;;5028233;28;19992;-91
2023/01/02 12:13:57;;;;;;;;;;;16.10;90.80;16.50;97237.00;;;;5021277;28;19978;-87
2023/01/02 12:17:00;;;;;;;;;;;16.20;90.80;17.90;97249.00;;;;5032560;28;19928;-89
2023/01/02 12:20:12;;;;;;;;;;;16.50;91.00;17.70;97247.00;;;;5031642;28;19934;-89
2023/01/02 12:23:24;;;;;;;;;;;16.60;89.30;17.50;97259.00;;;;5029788;28;19948;-87
2023/01/02 12:26:15;;;;;;;5.13;2.70;;;16.80;89.20;17.60;97256.00;;;;5030825;28;20211;-88
2023/01/02 12:29:33;;;;;;;5.17;3.23;;;16.90;88.10;17.80;97247.00;;;;5031172;28;20212;-89
2023/01/02 12:33:09;;;;;;;3.90;2.87;;;17.10;86.80;18.30;97240.00;;;;5030344;28;20197;-89
2023/01/02 12:36:25;;;;;;;6.33;2.90;;;17.10;86.90;19.10;97249.00;;;;5030963;28;20197;-88
2023/01/02 12:39:37;;;;;;;5.60;3.10;;;17.40;87.60;18.80;97239.00;;;;5028711;28;20225;-88
2023/01/02 12:42:45;;;;;;;4.67;2.87;;;17.70;84.30;18.80;97235.00;;;;5030223;28;20573;-89
2023/01/02 12:45:42;;;;;;;3.83;3.00;;;17.80;83.50;19.30;97239.00;;;;5028212;28;20201;-88
2023/01/02 12:48:52;;;;;;;4.53;3.00;;;17.90;83.70;19.00;97243.00;;;;5030973;28;20675;-88
2023/01/02 12:51:52;;;;;;;2.47;2.27;;;18.00;81.20;19.40;97241.00;;;;5029266;28;20767;-88
2023/01/02 12:55:02;;;;;;;3.50;2.50;;;18.00;81.00;18.80;97226.00;;;;5025426;28;20319;-88
2023/01/02 12:57:58;;;;;;;6.13;3.10;;;18.00;80.00;18.20;97219.00;;;;5039739;28;20209;-87
2023/01/02 13:00:59;;;;;;;4.50;3.03;;;17.80;80.50;19.10;97236.00;;;;5035110;28;20221;-88
2023/01/02 13:04:02;;;;;;;5.23;2.43;;;17.80;80.60;20.50;97236.00;;;;5032888;28;20200;-87
2023/01/02 13:06:56;;;;;;;4.13;2.43;;;18.20;80.60;20.10;97231.00;;;;5038956;28;20684;-88
2023/01/02 13:09:49;;;;;;;3.90;2.80;;;18.50;77.90;18.80;97231.00;;;;5030321;28;20225;-86
2023/01/02 13:12:38;;;;;;;2.53;2.33;;;18.60;76.10;18.60;97233.00;;;;5028598;28;20694;-87